sensor_id;sensor_type;location;lat;lon;timestamp;P1;durP1;ratioP1;P2;durP2;ratioP2
19161;SDS011;9713;48.140;11.530;2023-02-05T00:03:36;16.57;;;9.47;;
19161;SDS011;9713;48.140;11.530;2023-02-05T00:07:19;14.73;;;8.90;;
19161;SDS011;9713;48.140;11.530;2023-02-05T00:11:02;14.90;;;9.20;;
19161;SDS011;9713;48.140;11.530;2023-02-05T00:14:49;16.07;;;9.40;;
19161;SDS011;9713;48.140;11.530;2023-02-05T00:18:34;16.33;;;9.47;;
19161;SDS011;9713;48.140;11.530;2023-02-05T00:22:17;15.73;;;9.17;;
19161;SDS011;9713;48.140;11.530;2023-02-05T00:26:00;14.43;;;8.77;;
19161;SDS011;9713;48.140;11.530;2023-02-05T00:29:42;15.63;;;9.33;;
19161;SDS011;9713;48.140;11.530;2023-02-05T00:33:25;16.57;;;9.20;;
19161;SDS011;9713;48.140;11.530;2023-02-05T00:37:09;18.33;;;10.87;;
19161;SDS011;9713;48.140;11.530;2023-02-05T00:40:52;19.53;;;10.47;;
19161;SDS011;9713;48.140;11.530;2023-02-05T00:44:35;21.50;;;10.93;;
19161;SDS011;9713;48.140;11.530;2023-02-05T00:48:17;21.07;;;11.37;;
19161;SDS011;9713;48.140;11.530;2023-02-05T00:52:00;18.27;;;9.87;;
19161;SDS011;9713;48.140;11.530;2023-02-05T00:55:46;17.93;;;10.07;;
19161;SDS011;9713;48.140;11.530;2023-02-05T00:59:29;19.17;;;10.47;;
19161;SDS011;9713;48.140;11.530;2023-02-05T01:03:12;16.73;;;9.73;;
19161;SDS011;9713;48.140;11.530;2023-02-05T01:06:55;16.53;;;9.50;;
19161;SDS011;9713;48.140;11.530;2023-02-05T01:10:41;13.00;;;7.87;;
19161;SDS011;9713;48.140;11.530;2023-02-05T01:14:26;13.23;;;8.03;;
19161;SDS011;9713;48.140;11.530;2023-02-05T01:18:09;14.40;;;8.50;;
19161;SDS011;9713;48.140;11.530;2023-02-05T01:21:52;14.50;;;8.33;;
19161;SDS011;9713;48.140;11.530;2023-02-05T01:25:35;16.07;;;8.47;;
19161;SDS011;9713;48.140;11.530;2023-02-05T01:29:17;15.90;;;8.97;;
19161;SDS011;9713;48.140;11.530;2023-02-05T01:33:02;15.13;;;8.33;;
19161;SDS011;9713;48.140;11.530;2023-02-05T01:36:45;15.17;;;8.03;;
19161;SDS011;9713;48.140;11.530;2023-02-05T01:40:31;15.60;;;7.80;;
19161;SDS011;9713;48.140;11.530;2023-02-05T01:44:14;14.30;;;8.23;;
19161;SDS011;9713;48.140;11.530;2023-02-05T01:47:59;16.10;;;7.90;;
19161;SDS011;9713;48.140;11.530;2023-02-05T01:51:44;12.77;;;7.97;;
19161;SDS011;9713;48.140;11.530;2023-02-05T01:55:28;13.73;;;8.10;;
19161;SDS011;9713;48.140;11.530;2023-02-05T01:59:13;15.47;;;8.50;;
19161;SDS011;9713;48.140;11.530;2023-02-05T02:02:58;13.53;;;8.43;;
19161;SDS011;9713;48.140;11.530;2023-02-05T02:06:41;15.33;;;8.37;;
19161;SDS011;9713;48.140;11.530;2023-02-05T02:10:25;14.90;;;7.90;;
19161;SDS011;9713;48.140;11.530;2023-02-05T02:14:08;13.33;;;8.37;;
19161;SDS011;9713;48.140;11.530;2023-02-05T02:17:53;13.23;;;8.20;;
19161;SDS011;9713;48.140;11.530;2023-02-05T02:26:13;19.30;;;9.73;;
19161;SDS011;9713;48.140;11.530;2023-02-05T02:30:04;13.93;;;8.90;;
19161;SDS011;9713;48.140;11.530;2023-02-05T02:33:51;18.53;;;9.53;;
19161;SDS011;9713;48.140;11.530;2023-02-05T02:37:39;16.47;;;9.20;;
19161;SDS011;9713;48.140;11.530;2023-02-05T02:41:26;15.27;;;9.03;;
19161;SDS011;9713;48.140;11.530;2023-02-05T02:45:12;17.13;;;8.63;;
19161;SDS011;9713;48.140;11.530;2023-02-05T02:48:56;14.00;;;8.23;;
19161;SDS011;9713;48.140;11.530;2023-02-05T02:52:44;16.10;;;8.40;;
19161;SDS011;9713;48.140;11.530;2023-02-05T02:56:28;13.50;;;7.60;;
19161;SDS011;9713;48.140;11.530;2023-02-05T03:00:14;14.43;;;8.07;;
19161;SDS011;9713;48.140;11.530;2023-02-05T03:04:01;13.30;;;7.73;;
19161;SDS011;9713;48.140;11.530;2023-02-05T03:07:51;13.93;;;8.20;;
19161;SDS011;9713;48.140;11.530;2023-02-05T03:11:34;14.53;;;8.23;;
19161;SDS011;9713;48.140;11.530;2023-02-05T03:15:18;14.93;;;8.20;;
19161;SDS011;9713;48.140;11.530;2023-02-05T03:19:01;13.20;;;7.83;;
19161;SDS011;9713;48.140;11.530;2023-02-05T03:22:45;14.07;;;7.90;;
19161;SDS011;9713;48.140;11.530;2023-02-05T03:26:29;13.33;;;7.70;;
19161;SDS011;9713;48.140;11.530;2023-02-05T03:30:12;13.07;;;7.67;;
19161;SDS011;9713;48.140;11.530;2023-02-05T03:34:00;14.13;;;7.03;;
19161;SDS011;9713;48.140;11.530;2023-02-05T03:37:50;14.20;;;6.90;;
19161;SDS011;9713;48.140;11.530;2023-02-05T03:41:43;10.50;;;6.53;;
19161;SDS011;9713;48.140;11.530;2023-02-05T03:45:42;11.43;;;6.47;;
19161;SDS011;9713;48.140;11.530;2023-02-05T03:49:34;11.30;;;6.13;;
19161;SDS011;9713;48.140;11.530;2023-02-05T03:53:22;9.83;;;6.20;;
19161;SDS011;9713;48.140;11.530;2023-02-05T03:57:08;9.77;;;6.10;;
19161;SDS011;9713;48.140;11.530;2023-02-05T04:00:55;8.57;;;5.83;;
19161;SDS011;9713;48.140;11.530;2023-02-05T04:04:39;11.23;;;6.40;;
19161;SDS011;9713;48.140;11.530;2023-02-05T04:08:22;9.63;;;6.17;;
19161;SDS011;9713;48.140;11.530;2023-02-05T04:12:05;10.10;;;6.27;;
19161;SDS011;9713;48.140;11.530;2023-02-05T04:15:48;9.90;;;6.10;;
19161;SDS011;9713;48.140;11.530;2023-02-05T04:19:30;11.07;;;6.57;;
19161;SDS011;9713;48.140;11.530;2023-02-05T04:23:15;9.73;;;6.10;;
19161;SDS011;9713;48.140;11.530;2023-02-05T04:26:57;12.07;;;6.60;;
19161;SDS011;9713;48.140;11.530;2023-02-05T04:30:40;10.30;;;6.40;;
19161;SDS011;9713;48.140;11.530;2023-02-05T04:34:23;12.07;;;6.53;;
19161;SDS011;9713;48.140;11.530;2023-02-05T04:38:05;11.63;;;6.90;;
19161;SDS011;9713;48.140;11.530;2023-02-05T04:41:49;10.03;;;6.27;;
19161;SDS011;9713;48.140;11.530;2023-02-05T04:45:34;8.77;;;5.63;;
19161;SDS011;9713;48.140;11.530;2023-02-05T04:49:17;13.47;;;6.73;;
19161;SDS011;9713;48.140;11.530;2023-02-05T04:52:59;11.07;;;6.50;;
19161;SDS011;9713;48.140;11.530;2023-02-05T04:56:43;11.67;;;7.10;;
19161;SDS011;9713;48.140;11.530;2023-02-05T05:00:28;9.80;;;5.97;;
19161;SDS011;9713;48.140;11.530;2023-02-05T05:04:11;10.63;;;6.63;;
19161;SDS011;9713;48.140;11.530;2023-02-05T05:07:53;10.63;;;6.17;;
19161;SDS011;9713;48.140;11.530;2023-02-05T05:11:36;10.27;;;6.33;;
19161;SDS011;9713;48.140;11.530;2023-02-05T05:15:19;10.17;;;6.20;;
19161;SDS011;9713;48.140;11.530;2023-02-05T05:19:03;13.30;;;6.93;;
19161;SDS011;9713;48.140;11.530;2023-02-05T05:22:45;10.63;;;6.20;;
19161;SDS011;9713;48.140;11.530;2023-02-05T05:26:28;8.73;;;6.30;;
19161;SDS011;9713;48.140;11.530;2023-02-05T05:30:11;9.97;;;6.17;;
19161;SDS011;9713;48.140;11.530;2023-02-05T05:33:54;9.87;;;6.13;;
19161;SDS011;9713;48.140;11.530;2023-02-05T05:37:38;9.83;;;6.37;;
19161;SDS011;9713;48.140;11.530;2023-02-05T05:41:22;11.23;;;6.27;;
19161;SDS011;9713;48.140;11.530;2023-02-05T05:45:23;9.50;;;6.17;;
19161;SDS011;9713;48.140;11.530;2023-02-05T05:49:06;9.13;;;5.70;;
19161;SDS011;9713;48.140;11.530;2023-02-05T05:52:50;9.37;;;5.83;;
19161;SDS011;9713;48.140;11.530;2023-02-05T05:56:32;10.80;;;6.07;;
19161;SDS011;9713;48.140;11.530;2023-02-05T06:00:16;10.80;;;5.77;;
19161;SDS011;9713;48.140;11.530;2023-02-05T06:03:59;10.27;;;5.93;;
19161;SDS011;9713;48.140;11.530;2023-02-05T06:07:44;9.63;;;5.33;;
19161;SDS011;9713;48.140;11.530;2023-02-05T06:11:28;8.40;;;4.90;;
19161;SDS011;9713;48.140;11.530;2023-02-05T06:15:11;11.77;;;5.97;;
19161;SDS011;9713;48.140;11.530;2023-02-05T06:18:54;10.53;;;6.00;;
19161;SDS011;9713;48.140;11.530;2023-02-05T06:22:37;11.37;;;6.57;;
19161;SDS011;9713;48.140;11.530;2023-02-05T06:26:19;10.50;;;6.10;;
19161;SDS011;9713;48.140;11.530;2023-02-05T06:30:04;12.37;;;6.93;;
19161;SDS011;9713;48.140;11.530;2023-02-05T06:33:47;13.30;;;6.93;;
19161;SDS011;9713;48.140;11.530;2023-02-05T06:37:30;10.20;;;6.03;;
19161;SDS011;9713;48.140;11.530;2023-02-05T06:41:27;11.90;;;6.83;;
19161;SDS011;9713;48.140;11.530;2023-02-05T06:45:14;15.13;;;7.50;;
19161;SDS011;9713;48.140;11.530;2023-02-05T06:48:57;11.60;;;6.60;;
19161;SDS011;9713;48.140;11.530;2023-02-05T06:52:39;12.27;;;6.73;;
19161;SDS011;9713;48.140;11.530;2023-02-05T06:56:22;12.67;;;6.87;;
19161;SDS011;9713;48.140;11.530;2023-02-05T07:00:05;9.03;;;6.03;;
19161;SDS011;9713;48.140;11.530;2023-02-05T07:03:50;12.47;;;6.50;;
19161;SDS011;9713;48.140;11.530;2023-02-05T07:07:36;11.20;;;6.63;;
19161;SDS011;9713;48.140;11.530;2023-02-05T07:11:20;11.70;;;7.13;;
19161;SDS011;9713;48.140;11.530;2023-02-05T07:15:03;11.90;;;6.90;;
19161;SDS011;9713;48.140;11.530;2023-02-05T07:18:46;12.27;;;7.03;;
19161;SDS011;9713;48.140;11.530;2023-02-05T07:22:30;11.30;;;6.70;;
19161;SDS011;9713;48.140;11.530;2023-02-05T07:26:14;11.13;;;6.60;;
19161;SDS011;9713;48.140;11.530;2023-02-05T07:29:57;10.33;;;5.83;;
19161;SDS011;9713;48.140;11.530;2023-02-05T07:33:40;8.47;;;4.80;;
19161;SDS011;9713;48.140;11.530;2023-02-05T07:37:23;7.90;;;4.73;;
19161;SDS011;9713;48.140;11.530;2023-02-05T07:41:08;8.83;;;5.63;;
19161;SDS011;9713;48.140;11.530;2023-02-05T07:44:51;9.97;;;5.60;;
19161;SDS011;9713;48.140;11.530;2023-02-05T07:48:34;9.83;;;5.80;;
19161;SDS011;9713;48.140;11.530;2023-02-05T07:52:17;7.93;;;5.10;;
19161;SDS011;9713;48.140;11.530;2023-02-05T07:56:03;8.87;;;4.90;;
19161;SDS011;9713;48.140;11.530;2023-02-05T07:59:47;7.40;;;4.90;;
19161;SDS011;9713;48.140;11.530;2023-02-05T08:03:30;8.50;;;4.93;;
19161;SDS011;9713;48.140;11.530;2023-02-05T08:07:13;8.03;;;5.13;;
19161;SDS011;9713;48.140;11.530;2023-02-05T08:10:56;8.63;;;5.80;;
19161;SDS011;9713;48.140;11.530;2023-02-05T08:14:39;8.33;;;4.93;;
19161;SDS011;9713;48.140;11.530;2023-02-05T08:18:23;18.10;;;9.23;;
19161;SDS011;9713;48.140;11.530;2023-02-05T08:22:06;9.07;;;5.53;;
19161;SDS011;9713;48.140;11.530;2023-02-05T08:25:51;9.43;;;5.60;;
19161;SDS011;9713;48.140;11.530;2023-02-05T08:29:34;8.90;;;5.73;;
19161;SDS011;9713;48.140;11.530;2023-02-05T08:33:17;11.10;;;6.10;;
19161;SDS011;9713;48.140;11.530;2023-02-05T08:37:01;8.73;;;4.97;;
19161;SDS011;9713;48.140;11.530;2023-02-05T08:40:44;8.43;;;5.30;;
19161;SDS011;9713;48.140;11.530;2023-02-05T08:44:27;7.50;;;5.33;;
19161;SDS011;9713;48.140;11.530;2023-02-05T08:48:10;10.83;;;5.40;;
19161;SDS011;9713;48.140;11.530;2023-02-05T08:51:53;8.17;;;5.43;;
19161;SDS011;9713;48.140;11.530;2023-02-05T08:55:37;7.00;;;4.93;;
19161;SDS011;9713;48.140;11.530;2023-02-05T08:59:20;8.13;;;5.20;;
19161;SDS011;9713;48.140;11.530;2023-02-05T09:03:02;10.87;;;5.73;;
19161;SDS011;9713;48.140;11.530;2023-02-05T09:06:47;9.33;;;5.53;;
19161;SDS011;9713;48.140;11.530;2023-02-05T09:10:29;8.93;;;5.63;;
19161;SDS011;9713;48.140;11.530;2023-02-05T09:14:14;10.97;;;5.87;;
19161;SDS011;9713;48.140;11.530;2023-02-05T09:17:57;10.07;;;5.83;;
19161;SDS011;9713;48.140;11.530;2023-02-05T09:21:39;9.90;;;5.80;;
19161;SDS011;9713;48.140;11.530;2023-02-05T09:25:22;8.53;;;5.10;;
19161;SDS011;9713;48.140;11.530;2023-02-05T09:29:05;9.43;;;5.77;;
19161;SDS011;9713;48.140;11.530;2023-02-05T09:32:49;12.70;;;6.03;;
19161;SDS011;9713;48.140;11.530;2023-02-05T09:36:32;10.73;;;6.07;;
19161;SDS011;9713;48.140;11.530;2023-02-05T09:40:17;14.30;;;5.90;;
19161;SDS011;9713;48.140;11.530;2023-02-05T09:44:04;10.17;;;5.97;;
19161;SDS011;9713;48.140;11.530;2023-02-05T09:47:53;8.70;;;5.50;;
19161;SDS011;9713;48.140;11.530;2023-02-05T09:51:41;10.20;;;5.77;;
19161;SDS011;9713;48.140;11.530;2023-02-05T09:55:26;9.50;;;5.80;;
19161;SDS011;9713;48.140;11.530;2023-02-05T09:59:12;10.53;;;5.93;;
19161;SDS011;9713;48.140;11.530;2023-02-05T10:02:57;14.07;;;6.57;;
19161;SDS011;9713;48.140;11.530;2023-02-05T10:10:56;8.63;;;5.10;;
19161;SDS011;9713;48.140;11.530;2023-02-05T10:14:42;6.83;;;3.53;;
19161;SDS011;9713;48.140;11.530;2023-02-05T10:18:34;8.67;;;4.70;;
19161;SDS011;9713;48.140;11.530;2023-02-05T10:22:25;7.00;;;3.80;;
19161;SDS011;9713;48.140;11.530;2023-02-05T10:26:10;5.77;;;3.60;;
19161;SDS011;9713;48.140;11.530;2023-02-05T10:29:56;7.43;;;3.90;;
19161;SDS011;9713;48.140;11.530;2023-02-05T10:33:45;9.47;;;4.07;;
19161;SDS011;9713;48.140;11.530;2023-02-05T10:37:34;7.23;;;3.53;;
19161;SDS011;9713;48.140;11.530;2023-02-05T10:41:21;12.23;;;3.53;;
19161;SDS011;9713;48.140;11.530;2023-02-05T10:45:11;7.03;;;4.33;;
19161;SDS011;9713;48.140;11.530;2023-02-05T10:49:03;8.30;;;3.30;;
19161;SDS011;9713;48.140;11.530;2023-02-05T10:52:48;6.37;;;2.97;;
19161;SDS011;9713;48.140;11.530;2023-02-05T10:56:30;7.07;;;3.23;;
19161;SDS011;9713;48.140;11.530;2023-02-05T11:00:15;9.80;;;3.30;;
19161;SDS011;9713;48.140;11.530;2023-02-05T11:04:01;11.50;;;5.30;;
19161;SDS011;9713;48.140;11.530;2023-02-05T11:07:46;9.13;;;3.70;;
19161;SDS011;9713;48.140;11.530;2023-02-05T11:11:30;9.53;;;2.53;;
19161;SDS011;9713;48.140;11.530;2023-02-05T11:15:17;8.27;;;2.83;;
19161;SDS011;9713;48.140;11.530;2023-02-05T11:19:03;6.87;;;2.80;;
19161;SDS011;9713;48.140;11.530;2023-02-05T11:22:46;7.63;;;2.63;;
19161;SDS011;9713;48.140;11.530;2023-02-05T11:26:29;8.50;;;2.40;;
19161;SDS011;9713;48.140;11.530;2023-02-05T11:30:16;8.40;;;2.30;;
19161;SDS011;9713;48.140;11.530;2023-02-05T11:34:22;7.63;;;2.70;;
19161;SDS011;9713;48.140;11.530;2023-02-05T11:38:05;7.27;;;2.27;;
19161;SDS011;9713;48.140;11.530;2023-02-05T11:41:49;6.63;;;2.90;;
19161;SDS011;9713;48.140;11.530;2023-02-05T11:45:33;11.03;;;2.90;;
19161;SDS011;9713;48.140;11.530;2023-02-05T11:49:19;8.97;;;2.63;;
19161;SDS011;9713;48.140;11.530;2023-02-05T11:53:05;10.77;;;3.00;;
19161;SDS011;9713;48.140;11.530;2023-02-05T11:57:01;10.33;;;2.70;;
19161;SDS011;9713;48.140;11.530;2023-02-05T12:00:50;9.80;;;2.80;;
19161;SDS011;9713;48.140;11.530;2023-02-05T12:04:38;8.43;;;3.00;;
19161;SDS011;9713;48.140;11.530;2023-02-05T12:08:28;10.67;;;2.93;;
19161;SDS011;9713;48.140;11.530;2023-02-05T12:12:15;10.80;;;3.20;;
19161;SDS011;9713;48.140;11.530;2023-02-05T12:16:03;8.43;;;3.33;;
19161;SDS011;9713;48.140;11.530;2023-02-05T12:19:52;7.27;;;2.73;;
19161;SDS011;9713;48.140;11.530;2023-02-05T12:27:49;12.93;;;3.30;;
19161;SDS011;9713;48.140;11.530;2023-02-05T12:31:46;10.70;;;3.10;;
19161;SDS011;9713;48.140;11.530;2023-02-05T12:35:41;14.43;;;3.30;;
19161;SDS011;9713;48.140;11.530;2023-02-05T12:39:36;8.97;;;3.17;;
19161;SDS011;9713;48.140;11.530;2023-02-05T12:43:25;7.70;;;3.60;;
19161;SDS011;9713;48.140;11.530;2023-02-05T12:47:14;8.80;;;3.43;;
19161;SDS011;9713;48.140;11.530;2023-02-05T12:51:08;10.90;;;3.70;;
19161;SDS011;9713;48.140;11.530;2023-02-05T12:55:01;9.83;;;3.30;;
19161;SDS011;9713;48.140;11.530;2023-02-05T12:58:55;11.70;;;3.83;;
19161;SDS011;9713;48.140;11.530;2023-02-05T13:02:43;11.90;;;3.67;;
19161;SDS011;9713;48.140;11.530;2023-02-05T13:06:31;12.60;;;3.40;;
19161;SDS011;9713;48.140;11.530;2023-02-05T13:10:16;10.97;;;3.40;;
19161;SDS011;9713;48.140;11.530;2023-02-05T13:14:02;8.10;;;3.00;;
19161;SDS011;9713;48.140;11.530;2023-02-05T13:17:51;15.27;;;3.80;;
19161;SDS011;9713;48.140;11.530;2023-02-05T13:21:38;14.40;;;3.33;;
19161;SDS011;9713;48.140;11.530;2023-02-05T13:25:39;9.63;;;4.10;;
19161;SDS011;9713;48.140;11.530;2023-02-05T13:29:42;10.30;;;3.60;;
19161;SDS011;9713;48.140;11.530;2023-02-05T13:33:31;15.83;;;4.03;;
19161;SDS011;9713;48.140;11.530;2023-02-05T13:37:19;12.17;;;4.00;;
19161;SDS011;9713;48.140;11.530;2023-02-05T13:49:43;15.37;;;4.40;;
19161;SDS011;9713;48.140;11.530;2023-02-05T13:53:51;11.57;;;4.00;;
19161;SDS011;9713;48.140;11.530;2023-02-05T14:01:54;15.20;;;4.43;;
19161;SDS011;9713;48.140;11.530;2023-02-05T14:05:40;15.57;;;4.87;;
19161;SDS011;9713;48.140;11.530;2023-02-05T14:09:28;12.67;;;4.50;;
19161;SDS011;9713;48.140;11.530;2023-02-05T14:13:16;14.93;;;4.73;;
19161;SDS011;9713;48.140;11.530;2023-02-05T14:29:52;12.70;;;4.43;;
19161;SDS011;9713;48.140;11.530;2023-02-05T14:33:38;12.00;;;4.20;;
19161;SDS011;9713;48.140;11.530;2023-02-05T14:37:25;12.70;;;5.27;;
19161;SDS011;9713;48.140;11.530;2023-02-05T14:41:16;16.47;;;5.10;;
19161;SDS011;9713;48.140;11.530;2023-02-05T14:45:00;14.40;;;4.83;;
19161;SDS011;9713;48.140;11.530;2023-02-05T14:48:43;15.50;;;4.83;;
19161;SDS011;9713;48.140;11.530;2023-02-05T14:52:29;15.60;;;5.27;;
19161;SDS011;9713;48.140;11.530;2023-02-05T14:56:23;21.13;;;6.13;;
19161;SDS011;9713;48.140;11.530;2023-02-05T15:00:21;12.33;;;4.33;;
19161;SDS011;9713;48.140;11.530;2023-02-05T15:04:15;17.03;;;4.97;;
19161;SDS011;9713;48.140;11.530;2023-02-05T15:08:07;11.03;;;4.27;;
19161;SDS011;9713;48.140;11.530;2023-02-05T15:11:56;19.87;;;8.50;;
19161;SDS011;9713;48.140;11.530;2023-02-05T15:20:02;12.90;;;4.30;;
19161;SDS011;9713;48.140;11.530;2023-02-05T15:23:47;13.00;;;5.70;;
19161;SDS011;9713;48.140;11.530;2023-02-05T15:27:36;12.57;;;4.33;;
19161;SDS011;9713;48.140;11.530;2023-02-05T15:31:25;12.43;;;4.53;;
19161;SDS011;9713;48.140;11.530;2023-02-05T15:35:16;10.57;;;4.30;;
19161;SDS011;9713;48.140;11.530;2023-02-05T15:39:04;8.60;;;4.27;;
19161;SDS011;9713;48.140;11.530;2023-02-05T15:42:53;12.73;;;5.00;;
19161;SDS011;9713;48.140;11.530;2023-02-05T15:46:39;12.83;;;4.90;;
19161;SDS011;9713;48.140;11.530;2023-02-05T15:50:21;12.37;;;5.00;;
19161;SDS011;9713;48.140;11.530;2023-02-05T15:54:04;13.37;;;5.10;;
19161;SDS011;9713;48.140;11.530;2023-02-05T15:57:47;11.53;;;5.20;;
19161;SDS011;9713;48.140;11.530;2023-02-05T16:01:32;14.13;;;5.27;;
19161;SDS011;9713;48.140;11.530;2023-02-05T16:05:18;15.30;;;5.50;;
19161;SDS011;9713;48.140;11.530;2023-02-05T16:09:12;9.60;;;5.33;;
19161;SDS011;9713;48.140;11.530;2023-02-05T16:12:57;13.67;;;5.10;;
19161;SDS011;9713;48.140;11.530;2023-02-05T16:16:42;11.83;;;4.90;;
19161;SDS011;9713;48.140;11.530;2023-02-05T16:20:37;14.10;;;5.80;;
19161;SDS011;9713;48.140;11.530;2023-02-05T16:24:24;13.17;;;4.70;;
19161;SDS011;9713;48.140;11.530;2023-02-05T16:28:12;19.43;;;6.07;;
19161;SDS011;9713;48.140;11.530;2023-02-05T16:32:00;16.20;;;5.30;;
19161;SDS011;9713;48.140;11.530;2023-02-05T16:35:46;14.17;;;5.27;;
19161;SDS011;9713;48.140;11.530;2023-02-05T16:39:32;19.00;;;7.43;;
19161;SDS011;9713;48.140;11.530;2023-02-05T16:43:22;17.37;;;7.07;;
19161;SDS011;9713;48.140;11.530;2023-02-05T16:47:13;15.80;;;6.17;;
19161;SDS011;9713;48.140;11.530;2023-02-05T16:50:56;13.00;;;5.83;;
19161;SDS011;9713;48.140;11.530;2023-02-05T16:54:40;11.60;;;5.30;;
19161;SDS011;9713;48.140;11.530;2023-02-05T16:58:23;12.27;;;5.50;;
19161;SDS011;9713;48.140;11.530;2023-02-05T17:02:14;21.00;;;6.90;;
19161;SDS011;9713;48.140;11.530;2023-02-05T17:06:07;15.10;;;6.57;;
19161;SDS011;9713;48.140;11.530;2023-02-05T17:10:00;17.37;;;7.00;;
19161;SDS011;9713;48.140;11.530;2023-02-05T17:13:47;28.93;;;9.33;;
19161;SDS011;9713;48.140;11.530;2023-02-05T17:17:31;18.80;;;7.40;;
19161;SDS011;9713;48.140;11.530;2023-02-05T17:21:24;17.40;;;7.37;;
19161;SDS011;9713;48.140;11.530;2023-02-05T17:25:09;20.60;;;7.27;;
19161;SDS011;9713;48.140;11.530;2023-02-05T17:28:52;13.67;;;7.40;;
19161;SDS011;9713;48.140;11.530;2023-02-05T17:32:38;22.50;;;9.03;;
19161;SDS011;9713;48.140;11.530;2023-02-05T17:36:20;24.90;;;10.40;;
19161;SDS011;9713;48.140;11.530;2023-02-05T17:40:03;21.13;;;10.10;;
19161;SDS011;9713;48.140;11.530;2023-02-05T17:43:47;23.13;;;10.07;;
19161;SDS011;9713;48.140;11.530;2023-02-05T17:47:30;25.10;;;11.00;;
19161;SDS011;9713;48.140;11.530;2023-02-05T17:51:18;26.37;;;12.23;;
19161;SDS011;9713;48.140;11.530;2023-02-05T17:55:02;26.23;;;13.10;;
19161;SDS011;9713;48.140;11.530;2023-02-05T17:58:46;24.67;;;10.97;;
19161;SDS011;9713;48.140;11.530;2023-02-05T18:02:30;24.20;;;11.00;;
19161;SDS011;9713;48.140;11.530;2023-02-05T18:06:13;26.80;;;11.03;;
19161;SDS011;9713;48.140;11.530;2023-02-05T18:09:58;27.33;;;11.20;;
19161;SDS011;9713;48.140;11.530;2023-02-05T18:13:41;20.00;;;10.17;;
19161;SDS011;9713;48.140;11.530;2023-02-05T18:17:23;18.70;;;9.97;;
19161;SDS011;9713;48.140;11.530;2023-02-05T18:21:06;20.93;;;10.77;;
19161;SDS011;9713;48.140;11.530;2023-02-05T18:24:49;35.23;;;17.47;;
19161;SDS011;9713;48.140;11.530;2023-02-05T18:28:33;19.20;;;10.07;;
19161;SDS011;9713;48.140;11.530;2023-02-05T18:32:16;20.60;;;10.43;;
19161;SDS011;9713;48.140;11.530;2023-02-05T18:36:07;23.77;;;11.87;;
19161;SDS011;9713;48.140;11.530;2023-02-05T18:39:51;25.23;;;10.80;;
19161;SDS011;9713;48.140;11.530;2023-02-05T18:43:35;26.73;;;10.67;;
19161;SDS011;9713;48.140;11.530;2023-02-05T18:47:19;22.10;;;10.57;;
19161;SDS011;9713;48.140;11.530;2023-02-05T18:51:05;18.97;;;9.83;;
19161;SDS011;9713;48.140;11.530;2023-02-05T18:54:48;21.97;;;10.40;;
19161;SDS011;9713;48.140;11.530;2023-02-05T18:58:31;24.90;;;10.47;;
19161;SDS011;9713;48.140;11.530;2023-02-05T19:02:15;24.97;;;10.77;;
19161;SDS011;9713;48.140;11.530;2023-02-05T19:06:01;27.27;;;11.27;;
19161;SDS011;9713;48.140;11.530;2023-02-05T19:09:44;24.93;;;10.90;;
19161;SDS011;9713;48.140;11.530;2023-02-05T19:13:27;21.87;;;10.97;;
19161;SDS011;9713;48.140;11.530;2023-02-05T19:17:10;25.17;;;11.00;;
19161;SDS011;9713;48.140;11.530;2023-02-05T19:20:54;20.37;;;9.63;;
19161;SDS011;9713;48.140;11.530;2023-02-05T19:24:36;25.43;;;11.90;;
19161;SDS011;9713;48.140;11.530;2023-02-05T19:28:20;23.53;;;11.07;;
19161;SDS011;9713;48.140;11.530;2023-02-05T19:32:03;23.73;;;10.90;;
19161;SDS011;9713;48.140;11.530;2023-02-05T19:35:46;23.93;;;12.17;;
19161;SDS011;9713;48.140;11.530;2023-02-05T19:39:33;20.50;;;9.90;;
19161;SDS011;9713;48.140;11.530;2023-02-05T19:43:15;19.93;;;9.97;;
19161;SDS011;9713;48.140;11.530;2023-02-05T19:46:59;45.97;;;18.43;;
19161;SDS011;9713;48.140;11.530;2023-02-05T19:50:42;29.93;;;14.17;;
19161;SDS011;9713;48.140;11.530;2023-02-05T19:54:25;22.73;;;10.77;;
19161;SDS011;9713;48.140;11.530;2023-02-05T19:58:11;21.13;;;10.57;;
19161;SDS011;9713;48.140;11.530;2023-02-05T20:01:53;20.80;;;11.00;;
19161;SDS011;9713;48.140;11.530;2023-02-05T20:05:36;20.33;;;11.07;;
19161;SDS011;9713;48.140;11.530;2023-02-05T20:09:19;21.03;;;11.67;;
19161;SDS011;9713;48.140;11.530;2023-02-05T20:13:01;25.80;;;13.10;;
19161;SDS011;9713;48.140;11.530;2023-02-05T20:16:45;25.70;;;12.47;;
19161;SDS011;9713;48.140;11.530;2023-02-05T20:20:28;20.83;;;12.20;;
19161;SDS011;9713;48.140;11.530;2023-02-05T20:24:25;25.40;;;12.90;;
19161;SDS011;9713;48.140;11.530;2023-02-05T20:28:08;24.33;;;12.90;;
19161;SDS011;9713;48.140;11.530;2023-02-05T20:31:52;22.27;;;12.33;;
19161;SDS011;9713;48.140;11.530;2023-02-05T20:35:35;23.83;;;12.70;;
19161;SDS011;9713;48.140;11.530;2023-02-05T20:39:18;21.60;;;11.97;;
19161;SDS011;9713;48.140;11.530;2023-02-05T20:43:01;24.87;;;12.20;;
19161;SDS011;9713;48.140;11.530;2023-02-05T20:46:47;28.73;;;14.20;;
19161;SDS011;9713;48.140;11.530;2023-02-05T20:50:31;21.03;;;11.60;;
19161;SDS011;9713;48.140;11.530;2023-02-05T20:54:15;21.57;;;12.47;;
19161;SDS011;9713;48.140;11.530;2023-02-05T20:57:58;19.60;;;11.93;;
19161;SDS011;9713;48.140;11.530;2023-02-05T21:01:40;21.83;;;11.60;;
19161;SDS011;9713;48.140;11.530;2023-02-05T21:05:23;22.50;;;11.60;;
19161;SDS011;9713;48.140;11.530;2023-02-05T21:09:08;20.20;;;10.77;;
19161;SDS011;9713;48.140;11.530;2023-02-05T21:12:50;19.87;;;10.73;;
19161;SDS011;9713;48.140;11.530;2023-02-05T21:16:33;20.33;;;10.87;;
19161;SDS011;9713;48.140;11.530;2023-02-05T21:20:17;17.27;;;10.27;;
19161;SDS011;9713;48.140;11.530;2023-02-05T21:24:00;20.10;;;9.80;;
19161;SDS011;9713;48.140;11.530;2023-02-05T21:27:45;15.40;;;9.70;;
19161;SDS011;9713;48.140;11.530;2023-02-05T21:31:28;17.90;;;10.37;;
19161;SDS011;9713;48.140;11.530;2023-02-05T21:35:14;16.03;;;10.20;;
19161;SDS011;9713;48.140;11.530;2023-02-05T21:38:57;12.90;;;8.47;;
19161;SDS011;9713;48.140;11.530;2023-02-05T21:42:40;13.23;;;7.90;;
19161;SDS011;9713;48.140;11.530;2023-02-05T21:46:24;12.83;;;7.83;;
19161;SDS011;9713;48.140;11.530;2023-02-05T21:50:09;9.93;;;6.47;;
19161;SDS011;9713;48.140;11.530;2023-02-05T21:53:52;13.23;;;6.47;;
19161;SDS011;9713;48.140;11.530;2023-02-05T21:57:37;13.07;;;6.80;;
19161;SDS011;9713;48.140;11.530;2023-02-05T22:01:21;12.07;;;6.70;;
19161;SDS011;9713;48.140;11.530;2023-02-05T22:05:06;10.43;;;6.83;;
19161;SDS011;9713;48.140;11.530;2023-02-05T22:08:49;13.70;;;8.00;;
19161;SDS011;9713;48.140;11.530;2023-02-05T22:12:32;16.43;;;8.70;;
19161;SDS011;9713;48.140;11.530;2023-02-05T22:16:16;14.73;;;8.63;;
19161;SDS011;9713;48.140;11.530;2023-02-05T22:20:00;18.07;;;9.90;;
19161;SDS011;9713;48.140;11.530;2023-02-05T22:23:48;17.63;;;8.67;;
19161;SDS011;9713;48.140;11.530;2023-02-05T22:27:33;14.63;;;8.57;;
19161;SDS011;9713;48.140;11.530;2023-02-05T22:31:17;13.80;;;8.73;;
19161;SDS011;9713;48.140;11.530;2023-02-05T22:35:00;17.20;;;9.43;;
19161;SDS011;9713;48.140;11.530;2023-02-05T22:38:44;13.40;;;8.53;;
19161;SDS011;9713;48.140;11.530;2023-02-05T22:42:29;16.23;;;8.23;;
19161;SDS011;9713;48.140;11.530;2023-02-05T22:46:12;12.43;;;7.57;;
19161;SDS011;9713;48.140;11.530;2023-02-05T22:49:56;13.23;;;8.53;;
19161;SDS011;9713;48.140;11.530;2023-02-05T22:53:39;12.80;;;8.37;;
19161;SDS011;9713;48.140;11.530;2023-02-05T22:57:22;12.23;;;7.97;;
19161;SDS011;9713;48.140;11.530;2023-02-05T23:01:12;12.37;;;7.87;;
19161;SDS011;9713;48.140;11.530;2023-02-05T23:04:56;12.87;;;7.57;;